Time;durP1;ratioP1;P1;durP2;ratioP2;P2;SDS_P1;SDS_P2;PMS_P1;PMS_P2;Temp;Humidity;BMP_temperature;BMP_pressure;BME280_temperature;BME280_humidity;BME280_pressure;Samples;Min_cycle;Max_cycle;Signal;HPM_P1;HPM_P2
2023/03/08 05:51:35;;;;;;;;;;;;;;;2.00;100.00;99105.69;111621;1248;22444;-56
2023/03/08 05:54:03;;;;;;;;;;;;;;;2.00;100.00;99105.86;112915;1248;22412;-56
2023/03/08 05:56:32;;;;;;;;;;;;;;;2.01;100.00;99106.02;111977;1248;24943;-46
2023/03/08 05:59:06;;;;;;;;;;;;;;;2.02;100.00;99094.69;112846;1248;22518;-57
2023/03/08 06:01:33;;;;;;;;;;;;;;;2.04;100.00;99098.68;113040;1248;22446;-46
2023/03/08 06:04:07;;;;;;;;;;;;;;;2.07;100.00;99104.05;112564;1248;22471;-46
2023/03/08 06:06:35;;;;;;;;;;;;;;;2.11;100.00;99106.70;112859;1248;22875;-57
2023/03/08 06:09:03;;;;;;;;;;;;;;;2.16;100.00;99104.71;112276;1248;23408;-57
2023/03/08 06:11:30;;;;;;;;;;;;;;;2.22;100.00;99103.58;112947;1248;22423;-46
2023/03/08 06:13:57;;;;;;;;;;;;;;;2.28;100.00;99099.89;112802;1248;22387;-57
2023/03/08 06:16:24;;;;;;;;;;;;;;;2.34;100.00;99100.66;112657;1248;144896;-58
2023/03/08 06:18:53;;;;;;;;;;;;;;;2.41;100.00;99100.23;112712;1248;22386;-55
2023/03/08 06:21:21;;;;;;;;;;;;;;;2.47;100.00;99099.64;112706;1248;22430;-55
2023/03/08 06:23:55;;;;;;;;;;;;;;;2.55;100.00;99101.46;111838;1248;25238;-45
2023/03/08 06:26:26;;;;;;;;;;;;;;;2.61;100.00;99100.86;112624;1248;22434;-48
2023/03/08 06:29:21;;;;;;;;;;;;;;;2.66;100.00;99104.36;112335;1248;22490;-56
2023/03/08 06:32:13;;;;;;;;;;;;;;;2.74;100.00;99108.77;112399;1248;24023;-57
2023/03/08 06:35:23;;;;;;;;;;;;;;;2.80;100.00;99110.05;112520;1248;22791;-57
2023/03/08 06:49:11;;;;;;;;;;;;;;;3.28;100.00;99139.38;112700;1248;23494;-57
2023/03/08 06:55:38;;;;;;;;;;;;;;;3.51;100.00;99124.61;112742;1248;23249;-57
2023/03/08 06:59:12;;;;;;;;;;;;;;;3.65;100.00;99112.16;112361;1248;23429;-48
2023/03/08 07:02:24;;;;;;;;;;;;;;;3.79;100.00;99118.14;112597;1248;23298;-57
2023/03/08 07:05:37;;;;;;;;;;;;;;;3.91;100.00;99117.38;112445;1248;22485;-57
2023/03/08 07:08:32;;;;;;;;;;;;;;;3.98;100.00;99112.78;112681;1248;22447;-46
2023/03/08 07:11:11;;;;;;;;;;;;;;;4.05;100.00;99113.86;112709;1248;22456;-57
2023/03/08 07:13:39;;;;;;;;;;;;;;;4.10;100.00;99110.09;112648;1248;23218;-58
2023/03/08 07:16:14;;;;;;;;;;;;;;;4.13;100.00;99117.03;112429;1248;23012;-56
2023/03/08 07:26:19;;;;;;;;;;;;;;;4.24;100.00;99111.41;112707;1248;22443;-47
2023/03/08 07:29:22;;;;;;;;;;;;;;;4.32;100.00;99111.80;112796;1248;22407;-47
2023/03/08 07:32:19;;;;;;;;;;;;;;;4.40;100.00;99117.55;112918;1248;23198;-46
2023/03/08 07:34:46;;;;;;;;;;;;;;;4.46;100.00;99123.45;112829;1248;22414;-46
2023/03/08 07:37:13;;;;;;;;;;;;;;;4.49;100.00;99117.61;112871;1248;22445;-58
2023/03/08 07:39:52;;;;;;;;;;;;;;;4.53;100.00;99107.27;112673;1248;23613;-46
2023/03/08 07:45:54;;;;;;;;;;;;;;;4.61;100.00;99107.65;112812;1248;22405;-57
2023/03/08 07:48:21;;;;;;;;;;;;;;;4.71;100.00;99104.08;112592;1248;23359;-57
2023/03/08 07:50:48;;;;;;;;;;;;;;;4.88;100.00;99099.14;112291;1248;23238;-60
2023/03/08 07:53:18;;;;;;;;;;;;;;;5.07;100.00;99088.65;112994;1248;23496;-48
2023/03/08 07:55:44;;;;;;;;;;;;;;;5.21;100.00;99084.54;112643;1248;23345;-46
2023/03/08 07:58:15;;;;;;;;;;;;;;;5.31;100.00;99089.06;112694;1248;22729;-57
2023/03/08 08:00:42;;;;;;;;;;;;;;;5.36;100.00;99090.80;112530;1248;22847;-49
2023/03/08 08:03:09;;;;;;;;;;;;;;;5.38;100.00;99086.30;112156;1248;22515;-47
2023/03/08 08:06:05;;;;;;;;;;;;;;;5.41;100.00;99083.20;112509;1248;22457;-46
2023/03/08 08:09:53;;;;;;;;;;;;;;;5.41;100.00;99078.02;112241;1248;23696;-56
2023/03/08 08:19:32;;;;;;;;;;;;;;;5.43;100.00;99077.15;112837;1248;22403;-45
2023/03/08 08:22:11;;;;;;;;;;;;;;;5.55;100.00;99084.08;112624;1248;22997;-45
2023/03/08 08:24:40;;;;;;;;;;;;;;;5.68;100.00;99080.11;112415;1248;23264;-56
2023/03/08 08:27:08;;;;;;;;;;;;;;;5.81;100.00;99085.66;112184;1248;22505;-57
2023/03/08 08:29:35;;;;;;;;;;;;;;;5.96;100.00;99094.15;112940;1248;23009;-57
2023/03/08 08:32:03;;;;;;;;;;;;;;;6.10;100.00;99090.68;112390;1248;22515;-57
2023/03/08 08:34:30;;;;;;;;;;;;;;;6.28;100.00;99089.27;112747;1248;22597;-45
2023/03/08 08:37:00;;;;;;;;;;;;;;;6.46;100.00;99082.65;111337;1248;23379;-57
2023/03/08 08:39:33;;;;;;;;;;;;;;;6.65;100.00;99083.98;111848;1248;23263;-46
2023/03/08 08:42:10;;;;;;;;;;;;;;;6.79;100.00;99078.03;111170;1248;22984;-56
2023/03/08 08:44:40;;;;;;;;;;;;;;;6.84;100.00;99077.14;111676;1248;23297;-47
2023/03/08 08:47:12;;;;;;;;;;;;;;;6.91;100.00;99074.51;112518;1248;24210;-57
2023/03/08 08:49:44;;;;;;;;;;;;;;;7.05;100.00;99079.65;111644;1248;23777;-57
2023/03/08 08:52:14;;;;;;;;;;;;;;;7.20;100.00;99082.52;112319;1248;22938;-57
2023/03/08 08:54:40;;;;;;;;;;;;;;;7.23;100.00;99088.04;112829;1248;23296;-45
2023/03/08 08:57:07;;;;;;;;;;;;;;;7.21;100.00;99085.98;112785;1248;22431;-45
2023/03/08 08:59:34;;;;;;;;;;;;;;;7.27;100.00;99087.67;112714;1248;22811;-46
2023/03/08 09:02:01;;;;;;;;;;;;;;;7.34;100.00;99085.20;112781;1248;22411;-46
2023/03/08 09:04:28;;;;;;;;;;;;;;;7.41;100.00;99084.30;112867;1248;22802;-46
2023/03/08 09:06:55;;;;;;;;;;;;;;;7.56;100.00;99078.12;112506;1248;24345;-57
2023/03/08 09:09:23;;;;;;;;;;;;;;;7.66;99.99;99073.88;112821;1248;22369;-47
2023/03/08 09:11:57;;;;;;;;;;;;;;;7.71;99.95;99072.98;112693;1248;25182;-58
2023/03/08 09:14:25;;;;;;;;;;;;;;;7.81;99.68;99075.52;112671;1248;24156;-45
2023/03/08 09:16:51;;;;;;;;;;;;;;;7.95;99.33;99076.95;112683;1248;22497;-46
2023/03/08 09:19:19;;;;;;;;;;;;;;;8.15;98.04;99077.11;113016;1248;22399;-45
2023/03/08 09:21:48;;;;;;;;;;;;;;;8.35;95.33;99070.32;112896;1248;23358;-57
2023/03/08 09:24:16;;;;;;;;;;;;;;;8.53;93.76;99070.50;112467;1248;22485;-56
2023/03/08 09:26:48;;;;;;;;;;;;;;;8.69;92.17;99068.22;112198;1248;22503;-46
2023/03/08 09:29:18;;;;;;;;;;;;;;;8.85;90.28;99063.85;111932;1248;22857;-45
2023/03/08 09:31:47;;;;;;;;;;;;;;;9.04;89.69;99058.05;112950;1248;23020;-46
2023/03/08 09:34:14;;;;;;;;;;;;;;;9.24;87.09;99048.71;112893;1248;23684;-45
2023/03/08 09:36:41;;;;;;;;;;;;;;;9.40;85.85;99043.79;113019;1248;22445;-45
2023/03/08 09:39:10;;;;;;;;;;;;;;;9.56;85.01;99039.88;112631;1248;22642;-45
2023/03/08 09:41:38;;;;;;;;;;;;;;;9.71;82.89;99045.91;112579;1248;22451;-46
2023/03/08 09:44:09;;;;;;;;;;;;;;;9.86;80.16;99041.31;112631;1237;23115;-47
2023/03/08 09:46:50;;;;;;;;;;;;;;;10.02;79.85;99036.33;112330;1248;22539;-45
2023/03/08 09:49:30;;;;;;;;;;;;;;;10.21;76.79;99042.09;112518;1248;23597;-45
2023/03/08 09:52:18;;;;;;;;;;;;;;;10.44;75.72;99035.24;112484;1248;22846;-56
2023/03/08 09:54:52;;;;;;;;;;;;;;;10.62;74.62;99028.42;111707;1248;23248;-46
2023/03/08 09:57:21;;;;;;;;;;;;;;;10.80;71.86;99024.41;112825;1248;23470;-46
2023/03/08 09:59:48;;;;;;;;;;;;;;;10.93;69.61;99014.70;112422;1248;23986;-57
2023/03/08 10:02:27;;;;;;;;;;;;;;;11.04;69.19;99011.14;112254;1248;22498;-46
2023/03/08 10:05:04;;;;;;;;;;;;;;;11.16;68.69;99003.72;112805;1248;22975;-57
2023/03/08 10:07:43;;;;;;;;;;;;;;;11.31;67.73;98999.00;112948;1248;23546;-46
2023/03/08 10:10:25;;;;;;;;;;;;;;;11.42;66.42;98999.27;112817;1248;22986;-46
2023/03/08 10:12:58;;;;;;;;;;;;;;;11.54;65.39;98992.70;112503;1248;22463;-57
2023/03/08 10:15:46;;;;;;;;;;;;;;;11.67;63.24;98988.34;112807;1248;22373;-57
2023/03/08 10:18:32;;;;;;;;;;;;;;;11.80;62.88;98997.29;112738;1248;23041;-57
2023/03/08 10:20:59;;;;;;;;;;;;;;;11.94;62.61;98990.48;112394;1248;22504;-56
2023/03/08 10:23:31;;;;;;;;;;;;;;;12.10;61.95;98987.95;112799;1248;25276;-45
2023/03/08 10:25:57;;;;;;;;;;;;;;;12.31;61.28;98990.36;113037;1248;22419;-56
2023/03/08 10:28:25;;;;;;;;;;;;;;;12.43;60.10;98986.54;112454;1248;22471;-57
2023/03/08 10:30:59;;;;;;;;;;;;;;;12.59;58.97;98980.81;113018;1248;23447;-57
2023/03/08 10:33:31;;;;;;;;;;;;;;;12.86;57.59;98983.88;112616;1248;22459;-45
2023/03/08 10:35:58;;;;;;;;;;;;;;;13.17;54.89;98984.35;112537;1248;22382;-47
2023/03/08 10:38:29;;;;;;;;;;;;;;;13.40;53.72;98979.42;112760;1248;23272;-58
2023/03/08 10:41:04;;;;;;;;;;;;;;;13.62;52.45;98965.73;112405;1248;23311;-59
2023/03/08 10:47:33;;;;;;;;;;;;;;;13.58;50.60;98964.45;112745;1248;22876;-47
2023/03/08 10:50:36;;;;;;;;;;;;;;;13.50;51.71;98953.02;112859;1248;22343;-47
2023/03/08 10:53:31;;;;;;;;;;;;;;;13.55;50.80;98946.89;112868;1248;22468;-46
2023/03/08 11:00:31;;;;;;;;;;;;;;;13.45;50.45;98940.91;112842;1248;22411;-48
2023/03/08 11:03:42;;;;;;;;;;;;;;;13.39;50.37;98940.23;111804;1248;22602;-59
2023/03/08 11:06:13;;;;;;;;;;;;;;;13.29;50.40;98938.80;112668;1248;22483;-47
2023/03/08 11:08:52;;;;;;;;;;;;;;;13.16;49.91;98949.00;112328;1248;22452;-46
2023/03/08 11:11:19;;;;;;;;;;;;;;;13.06;50.33;98944.60;112783;1248;23179;-47
2023/03/08 11:13:47;;;;;;;;;;;;;;;12.98;51.05;98940.30;112952;1248;22494;-47
2023/03/08 11:16:34;;;;;;;;;;;;;;;12.92;51.09;98947.98;112948;1248;22386;-48
2023/03/08 11:19:04;;;;;;;;;;;;;;;12.85;50.90;98947.02;111989;1248;22511;-60
2023/03/08 11:21:31;;;;;;;;;;;;;;;12.77;51.31;98942.86;112226;1248;22551;-58
2023/03/08 11:24:01;;;;;;;;;;;;;;;12.73;50.87;98937.38;112877;1248;22403;-59
2023/03/08 11:27:03;;;;;;;;;;;;;;;12.72;51.04;98937.77;112771;1248;22386;-59
2023/03/08 11:29:31;;;;;;;;;;;;;;;12.71;49.96;98951.26;111973;1256;22493;-58
2023/03/08 11:31:58;;;;;;;;;;;;;;;12.69;50.04;98946.23;112049;1256;22447;-46
2023/03/08 11:34:31;;;;;;;;;;;;;;;12.70;50.31;98946.57;111892;1256;22742;-58
2023/03/08 11:37:11;;;;;;;;;;;;;;;12.76;50.91;98945.86;111990;1256;22461;-47
2023/03/08 11:39:58;;;;;;;;;;;;;;;12.86;50.75;98943.83;112044;1256;23619;-47
2023/03/08 11:42:43;;;;;;;;;;;;;;;12.92;50.07;98950.63;111412;1262;22540;-47
2023/03/08 11:45:19;;;;;;;;;;;;;;;12.94;49.67;98950.40;111377;1262;22534;-47
2023/03/08 11:48:04;;;;;;;;;;;;;;;12.94;50.03;98945.33;111377;1262;22544;-47
2023/03/08 11:50:49;;;;;;;;;;;;;;;12.95;50.60;98944.76;111507;1262;22454;-48
2023/03/08 11:53:35;;;;;;;;;;;;;;;12.97;50.72;98939.97;111537;1262;22552;-46
2023/03/08 11:56:10;;;;;;;;;;;;;;;12.98;50.97;98938.19;111181;1262;22537;-47
2023/03/08 11:58:51;;;;;;;;;;;;;;;12.96;49.59;98944.52;111065;1262;22555;-58
2023/03/08 12:01:27;;;;;;;;;;;;;;;12.93;49.43;98946.91;111430;1262;22444;-59
2023/03/08 12:03:55;;;;;;;;;;;;;;;12.89;49.49;98940.58;111664;1256;22609;-58
2023/03/08 12:06:23;;;;;;;;;;;;;;;12.84;49.60;98940.39;111743;1256;22495;-46
2023/03/08 12:09:14;;;;;;;;;;;;;;;12.80;50.14;98944.86;111843;1256;22398;-47
2023/03/08 12:11:42;;;;;;;;;;;;;;;12.81;50.26;98939.06;112054;1256;23334;-47
2023/03/08 12:14:12;;;;;;;;;;;;;;;12.80;50.74;98940.48;111928;1256;22993;-47
2023/03/08 12:16:38;;;;;;;;;;;;;;;12.80;50.81;98942.77;111994;1256;22411;-58
2023/03/08 12:19:12;;;;;;;;;;;;;;;12.79;50.80;98941.58;112228;1248;22425;-58
2023/03/08 12:21:39;;;;;;;;;;;;;;;12.77;50.75;98944.24;112932;1248;22424;-58
